createdAt,value
2024-02-22T00:01:09.834Z,6.88
2024-02-22T00:03:38.223Z,6.60
2024-02-22T00:06:07.062Z,6.82
2024-02-22T00:08:35.431Z,6.10
2024-02-22T00:11:04.429Z,5.85
2024-02-22T00:13:32.958Z,6.03
2024-02-22T00:16:05.167Z,5.40
2024-02-22T00:18:34.328Z,5.53
2024-02-22T00:21:02.867Z,4.20
2024-02-22T00:23:30.981Z,3.90
2024-02-22T00:25:59.252Z,4.03
2024-02-22T00:28:27.450Z,4.15
2024-02-22T00:30:55.587Z,4.77
2024-02-22T00:33:25.220Z,4.90
2024-02-22T00:35:53.332Z,3.67
2024-02-22T00:38:21.526Z,3.30
2024-02-22T00:40:50.504Z,3.10
2024-02-22T00:43:18.604Z,2.38
2024-02-22T00:45:46.730Z,2.20
2024-02-22T00:48:15.017Z,2.22
2024-02-22T00:50:44.764Z,2.57
2024-02-22T00:53:13.126Z,2.72
2024-02-22T00:55:41.423Z,2.80
2024-02-22T00:58:10.108Z,3.67
2024-02-22T01:00:38.501Z,3.50
2024-02-22T01:03:07.375Z,3.20
2024-02-22T01:05:35.806Z,3.30
2024-02-22T01:08:06.609Z,3.10
2024-02-22T01:10:35.261Z,3.30
2024-02-22T01:13:03.422Z,4.37
2024-02-22T01:15:33.760Z,4.40
2024-02-22T01:18:03.615Z,5.00
2024-02-22T01:20:33.147Z,4.73
2024-02-22T01:23:02.051Z,4.60
2024-02-22T01:25:31.661Z,5.20
2024-02-22T01:27:59.756Z,4.60
2024-02-22T01:30:30.029Z,4.25
2024-02-22T01:32:58.254Z,4.43
2024-02-22T01:35:27.673Z,4.37
2024-02-22T01:37:56.120Z,4.57
2024-02-22T01:40:25.759Z,3.33
2024-02-22T01:42:56.653Z,2.80
2024-02-22T01:45:24.860Z,3.10
2024-02-22T01:47:53.483Z,2.70
2024-02-22T01:50:22.622Z,2.93
2024-02-22T01:52:50.805Z,3.03
2024-02-22T01:55:21.841Z,2.83
2024-02-22T01:57:53.332Z,3.53
2024-02-22T02:00:24.811Z,2.90
2024-02-22T02:02:53.058Z,3.13
2024-02-22T02:05:21.320Z,3.33
2024-02-22T02:07:49.821Z,2.83
2024-02-22T02:10:18.184Z,3.23
2024-02-22T02:12:46.319Z,3.73
2024-02-22T02:15:14.663Z,3.57
2024-02-22T02:17:44.912Z,3.60
2024-02-22T02:20:15.727Z,4.13
2024-02-22T02:23:00.407Z,3.27
2024-02-22T02:25:32.034Z,3.20
2024-02-22T02:28:00.207Z,3.60
2024-02-22T02:30:28.507Z,3.77
2024-02-22T02:32:56.839Z,3.40
2024-02-22T02:35:25.072Z,2.97
2024-02-22T02:37:53.320Z,2.70
2024-02-22T02:40:21.431Z,2.40
2024-02-22T02:42:50.957Z,2.63
2024-02-22T02:45:19.030Z,2.13
2024-02-22T02:47:47.163Z,2.10
2024-02-22T02:50:15.536Z,2.23
2024-02-22T02:52:43.718Z,2.20
2024-02-22T02:55:13.898Z,2.40
2024-02-22T02:57:42.293Z,2.13
2024-02-22T03:00:15.245Z,2.10
2024-02-22T03:02:43.446Z,1.90
2024-02-22T03:05:12.476Z,2.00
2024-02-22T03:07:40.861Z,2.80
2024-02-22T03:10:09.945Z,2.80
2024-02-22T03:12:38.511Z,3.40
2024-02-22T03:15:08.869Z,3.77
2024-02-22T03:17:38.460Z,4.37
2024-02-22T03:20:12.414Z,4.67
2024-02-22T03:22:41.102Z,4.43
2024-02-22T03:25:11.474Z,6.20
2024-02-22T03:27:39.561Z,5.90
2024-02-22T03:30:10.405Z,5.77
2024-02-22T03:32:40.009Z,6.17
2024-02-22T03:35:11.273Z,5.70
2024-02-22T03:37:39.767Z,5.23
2024-02-22T03:40:10.103Z,5.63
2024-02-22T03:42:38.325Z,5.67
2024-02-22T03:45:07.719Z,4.57
2024-02-22T03:47:36.012Z,4.57
2024-02-22T03:50:06.410Z,4.93
2024-02-22T03:52:35.308Z,5.00
2024-02-22T03:55:03.774Z,5.47
2024-02-22T03:57:31.952Z,4.60
2024-02-22T04:00:00.366Z,5.27
2024-02-22T04:02:28.669Z,5.20
2024-02-22T04:04:56.813Z,5.00
2024-02-22T04:07:26.508Z,6.20
2024-02-22T04:09:54.899Z,5.17
2024-02-22T04:12:23.177Z,5.27
2024-02-22T04:14:51.554Z,5.57
2024-02-22T04:17:20.257Z,5.63
2024-02-22T04:19:48.498Z,5.50
2024-02-22T04:22:16.607Z,5.20
2024-02-22T04:24:46.102Z,5.17
2024-02-22T04:27:14.260Z,5.63
2024-02-22T04:29:43.786Z,5.07
2024-02-22T04:32:12.193Z,5.13
2024-02-22T04:34:40.424Z,4.90
2024-02-22T04:37:08.564Z,5.30
2024-02-22T04:39:36.841Z,4.83
2024-02-22T04:42:07.153Z,5.47
2024-02-22T04:44:35.852Z,5.53
2024-02-22T04:47:04.717Z,5.07
2024-02-22T04:49:32.901Z,5.20
2024-02-22T04:52:04.314Z,5.83
2024-02-22T04:54:39.385Z,5.60
2024-02-22T04:57:12.704Z,5.73
2024-02-22T04:59:41.040Z,5.97
2024-02-22T05:02:10.488Z,5.20
2024-02-22T05:04:38.675Z,5.20
2024-02-22T05:07:07.199Z,5.87
2024-02-22T05:09:35.335Z,5.50
2024-02-22T05:12:03.575Z,6.27
2024-02-22T05:14:33.099Z,5.90
2024-02-22T05:17:01.418Z,5.63
2024-02-22T05:19:29.553Z,5.93
2024-02-22T05:21:57.784Z,5.70
2024-02-22T05:24:26.409Z,5.80
2024-02-22T05:26:54.490Z,5.87
2024-02-22T05:29:22.688Z,5.53
2024-02-22T05:31:53.702Z,6.37
2024-02-22T05:34:22.135Z,6.27
2024-02-22T05:36:50.264Z,6.30
2024-02-22T05:39:18.421Z,6.53
2024-02-22T05:41:47.113Z,6.87
2024-02-22T05:44:15.808Z,7.93
2024-02-22T05:46:44.033Z,7.03
2024-02-22T05:49:13.610Z,7.03
2024-02-22T05:51:41.871Z,6.90
2024-02-22T05:54:10.391Z,7.37
2024-02-22T05:56:38.672Z,6.73
2024-02-22T05:59:07.417Z,7.75
2024-02-22T06:01:35.884Z,6.93
2024-02-22T06:04:05.427Z,7.53
2024-02-22T06:06:34.996Z,7.90
2024-02-22T06:09:03.700Z,7.80
2024-02-22T06:11:31.874Z,7.67
2024-02-22T06:14:00.008Z,6.97
2024-02-22T06:16:28.189Z,7.87
2024-02-22T06:18:56.452Z,7.57
2024-02-22T06:21:24.613Z,7.40
2024-02-22T06:23:55.582Z,7.00
2024-02-22T06:26:23.892Z,7.47
2024-02-22T06:28:54.919Z,7.00
2024-02-22T06:31:24.496Z,7.57
2024-02-22T06:33:54.102Z,6.90
2024-02-22T06:36:22.317Z,6.03
2024-02-22T06:38:50.613Z,5.90
2024-02-22T06:41:20.477Z,6.28
2024-02-22T06:43:48.660Z,6.40
2024-02-22T06:46:17.612Z,5.57
2024-02-22T06:48:46.775Z,6.07
2024-02-22T06:51:14.985Z,6.37
2024-02-22T06:53:43.102Z,6.50
2024-02-22T06:56:11.284Z,6.23
2024-02-22T06:58:40.880Z,5.70
2024-02-22T07:01:09.297Z,5.40
2024-02-22T07:03:37.443Z,5.53
2024-02-22T07:06:06.413Z,5.28
2024-02-22T07:08:35.003Z,6.03
2024-02-22T07:11:06.142Z,5.37
2024-02-22T07:13:35.013Z,5.80
2024-02-22T07:16:04.890Z,5.30
2024-02-22T07:18:33.069Z,6.03
2024-02-22T07:21:01.950Z,5.23
2024-02-22T07:23:30.071Z,5.40
2024-02-22T07:25:58.331Z,5.28
2024-02-22T07:28:26.451Z,5.57
2024-02-22T07:30:54.796Z,4.90
2024-02-22T07:33:24.681Z,5.18
2024-02-22T07:35:52.861Z,4.97
2024-02-22T07:38:21.091Z,4.93
2024-02-22T07:40:49.187Z,4.82
2024-02-22T07:43:17.271Z,5.68
2024-02-22T07:45:45.359Z,4.80
2024-02-22T07:48:13.903Z,4.80
2024-02-22T07:50:43.604Z,4.47
2024-02-22T07:53:11.688Z,5.03
2024-02-22T07:55:40.291Z,3.88
2024-02-22T07:58:10.192Z,4.50
2024-02-22T08:00:38.667Z,3.80
2024-02-22T08:03:07.135Z,3.47
2024-02-22T08:05:35.261Z,3.28
2024-02-22T08:08:05.033Z,3.63
2024-02-22T08:10:33.244Z,3.22
2024-02-22T08:13:01.381Z,3.28
2024-02-22T08:15:29.634Z,2.95
2024-02-22T08:17:57.808Z,3.20
2024-02-22T08:20:26.126Z,3.22
2024-02-22T08:22:54.306Z,2.95
2024-02-22T08:25:25.398Z,3.40
2024-02-22T08:28:06.125Z,2.90
2024-02-22T08:30:35.466Z,2.90
2024-02-22T08:33:03.832Z,2.67
2024-02-22T08:35:32.232Z,2.70
2024-02-22T08:38:00.792Z,2.63
2024-02-22T08:40:38.541Z,2.65
2024-02-22T08:43:08.400Z,2.40
2024-02-22T08:45:36.774Z,2.58
2024-02-22T08:48:05.566Z,2.63
2024-02-22T08:50:34.046Z,2.75
2024-02-22T08:53:02.296Z,2.88
2024-02-22T08:55:31.838Z,2.55
2024-02-22T08:58:01.828Z,2.70
2024-02-22T09:00:30.561Z,2.25
2024-02-22T09:02:58.737Z,2.20
2024-02-22T09:05:28.413Z,2.05
2024-02-22T09:07:57.210Z,2.40
2024-02-22T09:10:25.586Z,2.72
2024-02-22T09:12:55.101Z,2.35
2024-02-22T09:15:24.106Z,2.20
2024-02-22T09:17:52.226Z,2.40
2024-02-22T09:20:21.182Z,2.55
2024-02-22T09:22:50.319Z,2.50
2024-02-22T09:25:18.959Z,2.65
2024-02-22T09:27:47.160Z,2.75
2024-02-22T09:30:17.089Z,2.80
2024-02-22T09:32:45.306Z,3.25
2024-02-22T09:35:13.616Z,3.15
2024-02-22T09:37:43.766Z,3.45
2024-02-22T09:40:13.869Z,3.25
2024-02-22T09:42:42.603Z,3.30
2024-02-22T09:45:11.795Z,3.10
2024-02-22T09:47:41.476Z,3.45
2024-02-22T09:50:12.012Z,3.28
2024-02-22T09:52:40.494Z,3.58
2024-02-22T09:55:11.749Z,3.20
2024-02-22T09:57:40.208Z,3.40
2024-02-22T10:00:09.390Z,3.65
2024-02-22T10:02:38.719Z,3.47
2024-02-22T10:05:09.977Z,4.50
2024-02-22T10:07:39.142Z,4.13
2024-02-22T10:10:08.397Z,3.83
2024-02-22T10:12:38.175Z,4.43
2024-02-22T10:15:10.570Z,4.85
2024-02-22T10:17:39.988Z,4.82
2024-02-22T10:20:11.690Z,4.65
2024-02-22T10:22:40.714Z,5.05
2024-02-22T10:25:10.409Z,5.78
2024-02-22T10:27:40.583Z,6.32
2024-02-22T10:30:13.112Z,6.10
2024-02-22T10:32:42.263Z,5.63
2024-02-22T10:35:14.462Z,5.35
2024-02-22T10:37:43.603Z,5.53
2024-02-22T10:40:13.227Z,6.07
2024-02-22T10:42:41.957Z,5.47
2024-02-22T10:45:10.442Z,5.57
2024-02-22T10:47:39.486Z,5.32
2024-02-22T10:50:09.103Z,5.57
2024-02-22T10:52:42.764Z,6.15
2024-02-22T10:55:15.575Z,6.38
2024-02-22T10:57:46.554Z,5.03
2024-02-22T11:00:16.697Z,6.10
2024-02-22T11:02:46.982Z,6.43
2024-02-22T11:05:16.297Z,5.68
2024-02-22T11:07:46.588Z,5.70
2024-02-22T11:10:15.285Z,5.28
2024-02-22T11:12:45.704Z,5.80
2024-02-22T11:15:15.625Z,6.07
2024-02-22T11:17:54.214Z,5.65
2024-02-22T11:20:32.777Z,4.72
2024-02-22T11:23:13.751Z,5.82
2024-02-22T11:25:42.033Z,5.05
2024-02-22T11:28:11.221Z,5.15
2024-02-22T11:30:41.445Z,4.65
2024-02-22T11:33:11.965Z,5.30
2024-02-22T11:35:41.289Z,5.07
2024-02-22T11:38:10.977Z,4.20
2024-02-22T11:40:39.915Z,5.55
2024-02-22T11:43:08.231Z,3.90
2024-02-22T11:45:37.389Z,4.70
2024-02-22T11:48:07.049Z,4.43
2024-02-22T11:50:35.421Z,4.32
2024-02-22T11:53:04.773Z,4.40
2024-02-22T11:55:36.168Z,4.20
2024-02-22T11:58:04.497Z,4.70
2024-02-22T12:00:33.206Z,4.22
2024-02-22T12:03:01.705Z,5.20
2024-02-22T12:05:30.298Z,4.93
2024-02-22T12:07:59.361Z,4.55
2024-02-22T12:10:27.504Z,4.90
2024-02-22T12:12:57.369Z,5.65
2024-02-22T12:15:27.976Z,5.30
2024-02-22T12:17:56.714Z,6.13
2024-02-22T12:20:25.380Z,5.90
2024-02-22T12:22:54.912Z,6.78
2024-02-22T12:25:23.187Z,6.78
2024-02-22T12:27:54.430Z,6.45
2024-02-22T12:30:26.499Z,6.07
2024-02-22T12:32:55.463Z,7.22
2024-02-22T12:35:24.103Z,6.88
2024-02-22T12:37:52.454Z,6.85
2024-02-22T12:40:20.634Z,7.18
2024-02-22T12:42:56.188Z,7.15
2024-02-22T12:45:25.846Z,6.45
2024-02-22T12:47:54.039Z,7.15
2024-02-22T12:50:22.734Z,7.75
2024-02-22T12:52:50.996Z,7.10
2024-02-22T12:55:19.266Z,7.43
2024-02-22T12:57:47.420Z,6.85
2024-02-22T13:00:16.112Z,6.80
2024-02-22T13:02:45.961Z,7.15
2024-02-22T13:05:14.067Z,6.82
2024-02-22T13:07:42.212Z,7.18
2024-02-22T13:10:11.172Z,6.95
2024-02-22T13:12:39.324Z,6.60
2024-02-22T13:15:08.578Z,7.38
2024-02-22T13:17:38.303Z,7.00
2024-02-22T13:20:13.617Z,7.00
2024-02-22T13:22:41.976Z,7.90
2024-02-22T13:25:11.480Z,7.45
2024-02-22T13:27:39.586Z,7.20
2024-02-22T13:30:11.308Z,6.60
2024-02-22T13:32:40.434Z,7.13
2024-02-22T13:35:10.895Z,7.05
2024-02-22T13:37:39.407Z,6.80
2024-02-22T13:40:15.151Z,6.35
2024-02-22T13:42:44.092Z,6.30
2024-02-22T13:45:12.463Z,6.47
2024-02-22T13:47:40.671Z,5.30
2024-02-22T13:50:11.519Z,5.93
2024-02-22T13:52:41.045Z,5.93
2024-02-22T13:55:12.019Z,5.30
2024-02-22T13:57:41.102Z,5.40
2024-02-22T14:00:10.180Z,5.45
2024-02-22T14:02:39.653Z,5.00
2024-02-22T14:05:08.277Z,5.03
2024-02-22T14:07:38.619Z,4.57
2024-02-22T14:10:08.474Z,4.43
2024-02-22T14:12:38.763Z,4.95
2024-02-22T14:15:07.582Z,4.88
2024-02-22T14:17:36.048Z,4.93
2024-02-22T14:20:04.383Z,4.53
2024-02-22T14:22:32.570Z,4.07
2024-02-22T14:25:02.033Z,4.00
2024-02-22T14:27:32.807Z,4.53
2024-02-22T14:30:00.885Z,5.22
2024-02-22T14:32:29.144Z,4.32
2024-02-22T14:34:57.280Z,4.43
2024-02-22T14:37:25.366Z,4.97
2024-02-22T14:39:53.576Z,4.43
2024-02-22T14:42:23.277Z,4.35
2024-02-22T14:44:50.393Z,4.50
2024-02-22T14:47:18.572Z,5.15
2024-02-22T14:49:46.832Z,4.75
2024-02-22T14:52:14.966Z,5.00
2024-02-22T14:54:43.633Z,4.78
2024-02-22T14:57:12.337Z,5.38
2024-02-22T14:59:41.862Z,4.97
2024-02-22T15:02:09.976Z,4.93
2024-02-22T15:04:38.255Z,6.05
2024-02-22T15:07:07.737Z,6.00
2024-02-22T15:09:35.945Z,5.82
2024-02-22T15:12:04.610Z,5.97
2024-02-22T15:14:33.000Z,6.00
2024-02-22T15:17:03.526Z,7.05
2024-02-22T15:19:34.896Z,6.70
2024-02-22T15:22:04.431Z,6.40
2024-02-22T15:24:32.656Z,7.38
2024-02-22T15:27:02.065Z,6.85
2024-02-22T15:29:30.361Z,7.10
2024-02-22T15:31:58.713Z,9.02
2024-02-22T15:34:28.341Z,6.95
2024-02-22T15:36:56.909Z,7.25
2024-02-22T15:39:25.482Z,8.48
2024-02-22T15:41:53.555Z,8.05
2024-02-22T15:44:21.872Z,8.55
2024-02-22T15:46:50.187Z,9.40
2024-02-22T15:49:18.483Z,8.60
2024-02-22T15:51:48.124Z,9.88
2024-02-22T15:54:16.293Z,9.15
2024-02-22T15:56:44.361Z,10.95
2024-02-22T15:59:12.524Z,9.93
2024-02-22T16:01:41.105Z,10.98
2024-02-22T16:04:09.533Z,10.45
2024-02-22T16:06:38.490Z,10.98
2024-02-22T16:09:09.317Z,11.00
2024-02-22T16:11:37.721Z,10.77
2024-02-22T16:14:06.361Z,11.18
2024-02-22T16:16:34.526Z,12.55
2024-02-22T16:19:02.691Z,12.38
2024-02-22T16:21:30.851Z,12.23
2024-02-22T16:23:59.063Z,11.27
2024-02-22T16:26:28.684Z,12.65
2024-02-22T16:28:56.936Z,12.90
2024-02-22T16:31:25.175Z,14.50
2024-02-22T16:33:53.335Z,13.18
2024-02-22T16:36:24.133Z,13.75
2024-02-22T16:38:58.765Z,14.35
2024-02-22T16:41:35.839Z,15.18
2024-02-22T16:44:04.126Z,14.20
2024-02-22T16:46:33.262Z,14.32
2024-02-22T16:49:01.660Z,13.77
2024-02-22T16:51:29.881Z,15.43
2024-02-22T16:53:58.138Z,15.15
2024-02-22T16:56:26.364Z,14.98
2024-02-22T16:59:00.105Z,13.93
2024-02-22T17:01:28.263Z,14.73
2024-02-22T17:03:56.348Z,13.88
2024-02-22T17:06:27.724Z,14.20
2024-02-22T17:08:58.997Z,15.10
2024-02-22T17:11:27.306Z,13.25
2024-02-22T17:13:57.094Z,13.38
2024-02-22T17:16:25.313Z,14.07
2024-02-22T17:18:54.610Z,13.85
2024-02-22T17:21:24.826Z,14.25
2024-02-22T17:23:53.213Z,13.45
2024-02-22T17:26:21.707Z,14.65
2024-02-22T17:28:49.961Z,15.38
2024-02-22T17:31:19.602Z,14.52
2024-02-22T17:33:47.764Z,15.52
2024-02-22T17:36:16.236Z,16.55
2024-02-22T17:38:44.361Z,15.98
2024-02-22T17:41:13.165Z,17.67
2024-02-22T17:43:41.313Z,19.00
2024-02-22T17:46:09.436Z,17.20
2024-02-22T17:48:40.279Z,17.70
2024-02-22T17:51:08.396Z,18.88
2024-02-22T17:53:37.489Z,19.15
2024-02-22T17:56:06.510Z,20.00
2024-02-22T17:58:42.466Z,18.23
2024-02-22T18:01:16.123Z,17.23
2024-02-22T18:03:45.639Z,20.00
2024-02-22T18:06:13.841Z,16.83
2024-02-22T18:08:42.143Z,15.27
2024-02-22T18:11:10.547Z,18.35
2024-02-22T18:13:38.670Z,17.08
2024-02-22T18:16:07.765Z,15.90
2024-02-22T18:18:38.278Z,18.20
2024-02-22T18:21:08.039Z,15.45
2024-02-22T18:23:42.609Z,16.33
2024-02-22T18:26:10.843Z,17.35
2024-02-22T18:28:38.976Z,17.50
2024-02-22T18:31:08.668Z,16.80
2024-02-22T18:33:37.022Z,17.45
2024-02-22T18:36:07.027Z,18.42
2024-02-22T18:38:36.914Z,19.58
2024-02-22T18:41:07.390Z,18.95
2024-02-22T18:43:35.636Z,18.48
2024-02-22T18:46:03.940Z,18.73
2024-02-22T18:48:32.189Z,18.70
2024-02-22T18:51:00.646Z,17.92
2024-02-22T18:53:29.579Z,14.40
2024-02-22T18:56:00.583Z,13.50
2024-02-22T18:58:28.781Z,15.25
2024-02-22T19:00:56.886Z,14.55
2024-02-22T19:03:25.009Z,13.43
2024-02-22T19:05:53.259Z,11.45
2024-02-22T19:08:21.461Z,12.85
2024-02-22T19:10:49.784Z,13.35
2024-02-22T19:13:19.492Z,12.73
2024-02-22T19:15:48.576Z,12.32
2024-02-22T19:18:16.755Z,12.85
2024-02-22T19:20:46.205Z,10.82
2024-02-22T19:23:14.408Z,10.20
2024-02-22T19:25:42.575Z,10.23
2024-02-22T19:28:10.689Z,9.32
2024-02-22T19:30:40.787Z,9.48
2024-02-22T19:33:09.076Z,9.82
2024-02-22T19:35:39.398Z,9.07
2024-02-22T19:38:08.618Z,9.43
2024-02-22T19:40:36.754Z,9.73
2024-02-22T19:43:04.983Z,9.90
2024-02-22T19:45:33.570Z,9.13
2024-02-22T19:48:04.351Z,8.82
2024-02-22T19:50:33.431Z,8.75
2024-02-22T19:53:01.935Z,9.65
2024-02-22T19:55:30.233Z,8.77
2024-02-22T19:58:00.652Z,10.00
2024-02-22T20:00:29.107Z,9.98
2024-02-22T20:02:57.224Z,10.35
2024-02-22T20:05:27.057Z,10.98
2024-02-22T20:07:56.345Z,10.43
2024-02-22T20:10:24.511Z,11.80
2024-02-22T20:12:52.586Z,12.20
2024-02-22T20:15:20.951Z,11.35
2024-02-22T20:17:49.388Z,12.60
2024-02-22T20:20:17.520Z,10.30
2024-02-22T20:22:47.074Z,11.93
2024-02-22T20:25:15.154Z,11.13
2024-02-22T20:27:43.926Z,11.77
2024-02-22T20:30:13.379Z,11.65
2024-02-22T20:32:41.540Z,12.20
2024-02-22T20:35:18.633Z,11.68
2024-02-22T20:37:55.012Z,11.63
2024-02-22T20:40:23.659Z,11.70
2024-02-22T20:42:52.530Z,13.27
2024-02-22T20:45:20.994Z,11.50
2024-02-22T20:47:49.375Z,13.23
2024-02-22T20:50:18.530Z,12.80
2024-02-22T20:52:46.884Z,12.57
2024-02-22T20:55:16.462Z,13.45
2024-02-22T20:57:44.923Z,13.38
2024-02-22T21:00:14.008Z,13.73
2024-02-22T21:02:43.742Z,13.20
2024-02-22T21:05:14.897Z,14.45
2024-02-22T21:07:45.671Z,13.63
2024-02-22T21:10:16.612Z,14.07
2024-02-22T21:12:46.178Z,13.20
2024-02-22T21:15:14.292Z,12.80
2024-02-22T21:17:42.463Z,13.85
2024-02-22T21:20:12.216Z,12.82
2024-02-22T21:22:40.360Z,14.10
2024-02-22T21:25:08.804Z,13.20
2024-02-22T21:27:36.927Z,14.00
2024-02-22T21:30:07.924Z,12.85
2024-02-22T21:32:36.905Z,12.15
2024-02-22T21:35:07.747Z,12.75
2024-02-22T21:37:35.956Z,13.20
2024-02-22T21:40:06.702Z,12.20
2024-02-22T21:42:35.929Z,12.90
2024-02-22T21:45:04.072Z,12.70
2024-02-22T21:47:35.715Z,13.48
2024-02-22T21:50:04.666Z,13.32
2024-02-22T21:52:33.277Z,12.88
2024-02-22T21:55:01.609Z,14.27
2024-02-22T21:57:29.943Z,13.77
2024-02-22T21:59:58.088Z,14.27
2024-02-22T22:02:26.352Z,14.52
2024-02-22T22:04:56.206Z,12.98
2024-02-22T22:07:24.322Z,15.57
2024-02-22T22:09:52.439Z,15.18
2024-02-22T22:12:20.560Z,15.18
2024-02-22T22:14:48.858Z,15.50
2024-02-22T22:17:17.054Z,16.63
2024-02-22T22:19:45.259Z,17.05
2024-02-22T22:22:14.951Z,17.25
2024-02-22T22:24:43.030Z,15.95
2024-02-22T22:27:11.364Z,14.23
2024-02-22T22:29:39.920Z,18.63
2024-02-22T22:32:08.609Z,17.73
2024-02-22T22:34:37.397Z,18.25
2024-02-22T22:37:06.413Z,18.10
2024-02-22T22:39:35.892Z,17.33
2024-02-22T22:42:04.062Z,19.13
2024-02-22T22:44:36.478Z,18.83
2024-02-22T22:47:05.101Z,18.92
2024-02-22T22:49:33.357Z,20.23
2024-02-22T22:52:02.456Z,19.02
2024-02-22T22:54:30.608Z,18.02
2024-02-22T22:57:00.258Z,18.98
2024-02-22T22:59:28.526Z,19.63
2024-02-22T23:01:57.835Z,18.08
2024-02-22T23:04:26.333Z,16.73
2024-02-22T23:06:54.995Z,18.63
2024-02-22T23:09:24.935Z,18.98
2024-02-22T23:11:53.613Z,17.70
2024-02-22T23:14:23.348Z,16.80
2024-02-22T23:16:51.741Z,17.05
2024-02-22T23:19:19.879Z,17.08
2024-02-22T23:21:47.975Z,18.33
2024-02-22T23:24:16.030Z,18.38
2024-02-22T23:26:44.865Z,19.33
2024-02-22T23:29:13.028Z,17.42
2024-02-22T23:31:42.560Z,18.80
2024-02-22T23:34:11.947Z,16.90
2024-02-22T23:36:40.118Z,19.08
2024-02-22T23:39:08.280Z,17.75
2024-02-22T23:41:36.407Z,18.75
2024-02-22T23:44:04.681Z,17.75
2024-02-22T23:46:33.269Z,19.27
2024-02-22T23:49:04.959Z,18.75
2024-02-22T23:51:33.220Z,18.50
2024-02-22T23:54:05.842Z,19.38
2024-02-22T23:56:34.140Z,18.73
2024-02-22T23:59:02.496Z,18.70
